sensor_id;sensor_type;location;lat;lon;timestamp;pressure;altitude;pressure_sealevel;temperature;humidity
32875;BME280;40468;42.128;24.750;2022-08-14T00:01:10;98952.88;;;23.08;57.57
32875;BME280;40468;42.128;24.750;2022-08-14T00:02:42;98953.69;;;23.08;57.36
32875;BME280;40468;42.128;24.750;2022-08-14T00:04:15;98948.03;;;23.11;57.10
32875;BME280;40468;42.128;24.750;2022-08-14T00:05:46;98955.00;;;23.12;57.00
32875;BME280;40468;42.128;24.750;2022-08-14T00:07:18;98948.53;;;23.15;56.96
32875;BME280;40468;42.128;24.750;2022-08-14T00:08:49;98942.22;;;23.16;57.15
32875;BME280;40468;42.128;24.750;2022-08-14T00:10:20;98948.19;;;23.18;57.17
32875;BME280;40468;42.128;24.750;2022-08-14T00:11:52;98937.91;;;23.15;57.39
32875;BME280;40468;42.128;24.750;2022-08-14T00:13:24;98933.41;;;23.15;57.16
32875;BME280;40468;42.128;24.750;2022-08-14T00:14:58;98928.09;;;23.15;57.52
32875;BME280;40468;42.128;24.750;2022-08-14T00:16:31;98932.94;;;23.12;57.35
32875;BME280;40468;42.128;24.750;2022-08-14T00:18:03;98926.59;;;23.13;57.04
32875;BME280;40468;42.128;24.750;2022-08-14T00:19:35;98933.94;;;23.11;57.55
32875;BME280;40468;42.128;24.750;2022-08-14T00:21:07;98935.59;;;23.04;57.80
32875;BME280;40468;42.128;24.750;2022-08-14T00:22:38;98929.81;;;23.00;57.65
32875;BME280;40468;42.128;24.750;2022-08-14T00:24:09;98929.63;;;22.93;58.07
32875;BME280;40468;42.128;24.750;2022-08-14T00:25:41;98924.66;;;22.90;58.19
32875;BME280;40468;42.128;24.750;2022-08-14T00:27:12;98931.28;;;22.86;58.21
32875;BME280;40468;42.128;24.750;2022-08-14T00:28:44;98925.34;;;22.84;58.11
32875;BME280;40468;42.128;24.750;2022-08-14T00:30:16;98928.16;;;22.83;58.42
32875;BME280;40468;42.128;24.750;2022-08-14T00:31:49;98924.00;;;22.80;58.40
32875;BME280;40468;42.128;24.750;2022-08-14T00:33:20;98927.84;;;22.78;58.53
32875;BME280;40468;42.128;24.750;2022-08-14T00:34:51;98924.69;;;22.74;58.84
32875;BME280;40468;42.128;24.750;2022-08-14T00:36:23;98923.88;;;22.74;58.57
32875;BME280;40468;42.128;24.750;2022-08-14T00:37:55;98921.22;;;22.74;58.49
32875;BME280;40468;42.128;24.750;2022-08-14T00:39:26;98922.22;;;22.73;58.62
32875;BME280;40468;42.128;24.750;2022-08-14T00:40:58;98919.72;;;22.71;58.80
32875;BME280;40468;42.128;24.750;2022-08-14T00:42:29;98917.56;;;22.75;58.62
32875;BME280;40468;42.128;24.750;2022-08-14T00:44:00;98912.41;;;22.73;58.69
32875;BME280;40468;42.128;24.750;2022-08-14T00:45:32;98919.22;;;22.76;58.40
32875;BME280;40468;42.128;24.750;2022-08-14T00:47:05;98916.09;;;22.72;58.55
32875;BME280;40468;42.128;24.750;2022-08-14T00:48:37;98915.41;;;22.70;58.56
32875;BME280;40468;42.128;24.750;2022-08-14T00:50:10;98911.59;;;22.73;58.54
32875;BME280;40468;42.128;24.750;2022-08-14T00:51:42;98912.28;;;22.75;58.63
32875;BME280;40468;42.128;24.750;2022-08-14T00:53:14;98908.28;;;22.70;58.84
32875;BME280;40468;42.128;24.750;2022-08-14T00:54:48;98915.41;;;22.70;58.63
32875;BME280;40468;42.128;24.750;2022-08-14T00:56:23;98917.88;;;22.71;58.58
32875;BME280;40468;42.128;24.750;2022-08-14T00:57:55;98913.59;;;22.70;58.84
32875;BME280;40468;42.128;24.750;2022-08-14T00:59:41;98919.91;;;22.61;59.34
32875;BME280;40468;42.128;24.750;2022-08-14T01:01:13;98917.44;;;22.60;59.45
32875;BME280;40468;42.128;24.750;2022-08-14T01:02:47;98905.00;;;22.60;59.09
32875;BME280;40468;42.128;24.750;2022-08-14T01:04:20;98907.66;;;22.60;59.27
32875;BME280;40468;42.128;24.750;2022-08-14T01:05:51;98917.09;;;22.63;59.04
32875;BME280;40468;42.128;24.750;2022-08-14T01:07:24;98904.81;;;22.62;59.26
32875;BME280;40468;42.128;24.750;2022-08-14T01:08:55;98912.44;;;22.57;59.34
32875;BME280;40468;42.128;24.750;2022-08-14T01:10:27;98909.97;;;22.55;59.36
32875;BME280;40468;42.128;24.750;2022-08-14T01:12:13;98909.63;;;22.50;59.50
32875;BME280;40468;42.128;24.750;2022-08-14T01:13:46;98905.47;;;22.47;59.99
32875;BME280;40468;42.128;24.750;2022-08-14T01:15:19;98907.16;;;22.48;59.56
32875;BME280;40468;42.128;24.750;2022-08-14T01:16:51;98904.16;;;22.52;59.25
32875;BME280;40468;42.128;24.750;2022-08-14T01:18:25;98895.88;;;22.55;59.19
32875;BME280;40468;42.128;24.750;2022-08-14T01:20:14;98892.53;;;22.61;58.66
32875;BME280;40468;42.128;24.750;2022-08-14T01:22:01;98898.53;;;22.63;58.56
32875;BME280;40468;42.128;24.750;2022-08-14T01:25:07;98896.00;;;22.69;58.42
32875;BME280;40468;42.128;24.750;2022-08-14T01:26:40;98899.00;;;22.75;58.50
32875;BME280;40468;42.128;24.750;2022-08-14T01:28:12;98895.50;;;22.74;58.32
32875;BME280;40468;42.128;24.750;2022-08-14T01:29:44;98898.81;;;22.76;58.10
32875;BME280;40468;42.128;24.750;2022-08-14T01:31:17;98901.13;;;22.79;58.15
32875;BME280;40468;42.128;24.750;2022-08-14T01:32:49;98895.00;;;22.79;58.11
32875;BME280;40468;42.128;24.750;2022-08-14T01:34:20;98898.97;;;22.83;57.89
32875;BME280;40468;42.128;24.750;2022-08-14T01:35:55;98897.97;;;22.84;57.68
32875;BME280;40468;42.128;24.750;2022-08-14T01:37:28;98894.47;;;22.83;57.96
32875;BME280;40468;42.128;24.750;2022-08-14T01:39:00;98895.47;;;22.82;58.08
32875;BME280;40468;42.128;24.750;2022-08-14T01:40:31;98899.97;;;22.82;57.86
32875;BME280;40468;42.128;24.750;2022-08-14T01:42:02;98895.47;;;22.82;57.75
32875;BME280;40468;42.128;24.750;2022-08-14T01:43:41;98903.09;;;22.85;57.62
32875;BME280;40468;42.128;24.750;2022-08-14T01:45:12;98901.94;;;22.88;57.56
32875;BME280;40468;42.128;24.750;2022-08-14T01:46:44;98899.13;;;22.89;57.47
32875;BME280;40468;42.128;24.750;2022-08-14T01:48:16;98899.75;;;22.91;57.55
32875;BME280;40468;42.128;24.750;2022-08-14T01:49:47;98903.59;;;22.89;57.81
32875;BME280;40468;42.128;24.750;2022-08-14T01:51:20;98903.78;;;22.87;57.97
32875;BME280;40468;42.128;24.750;2022-08-14T01:52:53;98907.75;;;22.83;58.42
32875;BME280;40468;42.128;24.750;2022-08-14T01:54:25;98905.63;;;22.79;58.54
32875;BME280;40468;42.128;24.750;2022-08-14T01:55:58;98906.09;;;22.74;58.62
32875;BME280;40468;42.128;24.750;2022-08-14T01:57:28;98906.28;;;22.73;58.54
32875;BME280;40468;42.128;24.750;2022-08-14T01:59:00;98901.81;;;22.73;58.45
32875;BME280;40468;42.128;24.750;2022-08-14T02:00:32;98903.13;;;22.77;58.57
32875;BME280;40468;42.128;24.750;2022-08-14T02:02:08;98903.97;;;22.78;58.36
32875;BME280;40468;42.128;24.750;2022-08-14T02:03:42;98904.78;;;22.78;58.59
32875;BME280;40468;42.128;24.750;2022-08-14T02:05:13;98904.13;;;22.76;58.60
32875;BME280;40468;42.128;24.750;2022-08-14T02:06:45;98896.34;;;22.75;58.52
32875;BME280;40468;42.128;24.750;2022-08-14T02:08:18;98903.97;;;22.78;58.43
32875;BME280;40468;42.128;24.750;2022-08-14T02:09:50;98895.66;;;22.81;58.09
32875;BME280;40468;42.128;24.750;2022-08-14T02:11:22;98895.13;;;22.85;58.03
32875;BME280;40468;42.128;24.750;2022-08-14T02:12:54;98880.69;;;22.88;57.79
32875;BME280;40468;42.128;24.750;2022-08-14T02:14:27;98885.66;;;22.91;57.89
32875;BME280;40468;42.128;24.750;2022-08-14T02:15:58;98890.81;;;22.92;58.01
32875;BME280;40468;42.128;24.750;2022-08-14T02:17:31;98890.50;;;22.96;57.71
32875;BME280;40468;42.128;24.750;2022-08-14T02:19:04;98886.03;;;22.96;57.79
32875;BME280;40468;42.128;24.750;2022-08-14T02:20:36;98887.66;;;22.97;57.97
32875;BME280;40468;42.128;24.750;2022-08-14T02:22:08;98885.00;;;22.97;57.69
32875;BME280;40468;42.128;24.750;2022-08-14T02:23:41;98890.16;;;22.99;57.91
32875;BME280;40468;42.128;24.750;2022-08-14T02:25:13;98887.31;;;23.00;57.80
32875;BME280;40468;42.128;24.750;2022-08-14T02:26:45;98890.16;;;22.99;57.70
32875;BME280;40468;42.128;24.750;2022-08-14T02:28:18;98887.50;;;22.99;57.85
32875;BME280;40468;42.128;24.750;2022-08-14T02:29:49;98889.16;;;23.00;57.76
32875;BME280;40468;42.128;24.750;2022-08-14T02:31:25;98887.16;;;23.02;57.34
32875;BME280;40468;42.128;24.750;2022-08-14T02:32:59;98889.81;;;23.02;57.15
32875;BME280;40468;42.128;24.750;2022-08-14T02:34:31;98883.50;;;23.03;57.52
32875;BME280;40468;42.128;24.750;2022-08-14T02:36:03;98881.66;;;23.03;57.54
32875;BME280;40468;42.128;24.750;2022-08-14T02:37:34;98882.84;;;23.01;57.71
32875;BME280;40468;42.128;24.750;2022-08-14T02:39:08;98889.81;;;23.02;57.31
32875;BME280;40468;42.128;24.750;2022-08-14T02:40:40;98877.72;;;22.99;57.75
32875;BME280;40468;42.128;24.750;2022-08-14T02:42:13;98880.19;;;22.92;57.92
32875;BME280;40468;42.128;24.750;2022-08-14T02:43:45;98884.53;;;22.85;57.93
32875;BME280;40468;42.128;24.750;2022-08-14T02:45:15;98882.53;;;22.79;58.12
32875;BME280;40468;42.128;24.750;2022-08-14T02:46:48;98888.38;;;22.75;58.75
32875;BME280;40468;42.128;24.750;2022-08-14T02:49:50;98876.63;;;22.61;58.49
32875;BME280;40468;42.128;24.750;2022-08-14T02:51:23;98872.63;;;22.57;59.08
32875;BME280;40468;42.128;24.750;2022-08-14T02:52:55;98875.97;;;22.51;59.21
32875;BME280;40468;42.128;24.750;2022-08-14T02:54:28;98870.34;;;22.45;59.17
32875;BME280;40468;42.128;24.750;2022-08-14T02:56:00;98870.69;;;22.42;59.32
32875;BME280;40468;42.128;24.750;2022-08-14T02:57:33;98876.16;;;22.41;59.32
32875;BME280;40468;42.128;24.750;2022-08-14T02:59:05;98871.19;;;22.38;59.31
32875;BME280;40468;42.128;24.750;2022-08-14T03:00:38;98866.88;;;22.37;59.32
32875;BME280;40468;42.128;24.750;2022-08-14T03:02:10;98869.34;;;22.38;59.58
32875;BME280;40468;42.128;24.750;2022-08-14T03:03:42;98863.75;;;22.33;59.63
32875;BME280;40468;42.128;24.750;2022-08-14T03:05:14;98864.03;;;22.30;59.71
32875;BME280;40468;42.128;24.750;2022-08-14T03:06:46;98865.22;;;22.28;59.78
32875;BME280;40468;42.128;24.750;2022-08-14T03:08:19;98872.66;;;22.24;60.10
32875;BME280;40468;42.128;24.750;2022-08-14T03:09:51;98872.84;;;22.22;60.30
32875;BME280;40468;42.128;24.750;2022-08-14T03:11:23;98872.19;;;22.20;60.26
32875;BME280;40468;42.128;24.750;2022-08-14T03:12:55;98867.88;;;22.19;60.17
32875;BME280;40468;42.128;24.750;2022-08-14T03:14:26;98869.16;;;22.15;60.78
32875;BME280;40468;42.128;24.750;2022-08-14T03:15:57;98870.97;;;22.15;60.76
32875;BME280;40468;42.128;24.750;2022-08-14T03:17:30;98867.84;;;22.11;61.12
32875;BME280;40468;42.128;24.750;2022-08-14T03:19:02;98870.00;;;22.08;61.22
32875;BME280;40468;42.128;24.750;2022-08-14T03:20:34;98861.72;;;22.02;61.73
32875;BME280;40468;42.128;24.750;2022-08-14T03:22:05;98859.72;;;21.96;62.00
32875;BME280;40468;42.128;24.750;2022-08-14T03:23:36;98859.22;;;21.93;62.25
32875;BME280;40468;42.128;24.750;2022-08-14T03:25:09;98852.75;;;21.87;62.60
32875;BME280;40468;42.128;24.750;2022-08-14T03:26:42;98850.25;;;21.86;62.64
32875;BME280;40468;42.128;24.750;2022-08-14T03:28:14;98857.56;;;21.84;62.81
32875;BME280;40468;42.128;24.750;2022-08-14T03:29:45;98857.06;;;21.80;63.00
32875;BME280;40468;42.128;24.750;2022-08-14T03:31:18;98858.06;;;21.79;62.89
32875;BME280;40468;42.128;24.750;2022-08-14T03:32:52;98858.53;;;21.83;62.80
32875;BME280;40468;42.128;24.750;2022-08-14T03:34:23;98859.41;;;21.83;62.83
32875;BME280;40468;42.128;24.750;2022-08-14T03:35:55;98856.75;;;21.83;62.58
32875;BME280;40468;42.128;24.750;2022-08-14T03:37:27;98861.72;;;21.86;62.26
32875;BME280;40468;42.128;24.750;2022-08-14T03:38:59;98861.53;;;21.88;62.49
32875;BME280;40468;42.128;24.750;2022-08-14T03:40:31;98859.72;;;21.88;62.68
32875;BME280;40468;42.128;24.750;2022-08-14T03:42:03;98857.06;;;21.88;62.50
32875;BME280;40468;42.128;24.750;2022-08-14T03:43:35;98855.75;;;21.92;61.84
32875;BME280;40468;42.128;24.750;2022-08-14T03:45:07;98867.84;;;21.95;61.94
32875;BME280;40468;42.128;24.750;2022-08-14T03:46:38;98856.94;;;21.98;61.96
32875;BME280;40468;42.128;24.750;2022-08-14T03:48:13;98861.03;;;22.00;61.65
32875;BME280;40468;42.128;24.750;2022-08-14T03:49:48;98863.34;;;22.03;61.52
32875;BME280;40468;42.128;24.750;2022-08-14T03:51:20;98865.72;;;22.07;61.80
32875;BME280;40468;42.128;24.750;2022-08-14T03:52:51;98875.13;;;22.09;61.47
32875;BME280;40468;42.128;24.750;2022-08-14T03:54:23;98875.66;;;22.13;61.17
32875;BME280;40468;42.128;24.750;2022-08-14T03:55:56;98880.63;;;22.16;61.49
32875;BME280;40468;42.128;24.750;2022-08-14T03:57:27;98875.31;;;22.16;61.39
32875;BME280;40468;42.128;24.750;2022-08-14T03:59:02;98885.78;;;22.17;61.51
32875;BME280;40468;42.128;24.750;2022-08-14T04:00:40;98877.66;;;22.19;61.58
32875;BME280;40468;42.128;24.750;2022-08-14T04:02:15;98877.81;;;22.17;61.58
32875;BME280;40468;42.128;24.750;2022-08-14T04:03:46;98887.28;;;22.20;61.22
32875;BME280;40468;42.128;24.750;2022-08-14T04:05:18;98886.25;;;22.21;61.44
32875;BME280;40468;42.128;24.750;2022-08-14T04:06:48;98887.13;;;22.21;61.69
32875;BME280;40468;42.128;24.750;2022-08-14T04:08:20;98890.94;;;22.19;61.73
32875;BME280;40468;42.128;24.750;2022-08-14T04:09:52;98897.88;;;22.20;61.65
32875;BME280;40468;42.128;24.750;2022-08-14T04:11:25;98899.72;;;22.19;62.17
32875;BME280;40468;42.128;24.750;2022-08-14T04:12:59;98896.88;;;22.21;61.84
32875;BME280;40468;42.128;24.750;2022-08-14T04:14:30;98888.09;;;22.20;61.54
32875;BME280;40468;42.128;24.750;2022-08-14T04:16:02;98897.53;;;22.23;61.84
32875;BME280;40468;42.128;24.750;2022-08-14T04:17:34;98895.06;;;22.21;62.69
32875;BME280;40468;42.128;24.750;2022-08-14T04:19:06;98888.56;;;22.16;63.01
32875;BME280;40468;42.128;24.750;2022-08-14T04:20:38;98900.00;;;22.16;62.90
32875;BME280;40468;42.128;24.750;2022-08-14T04:22:09;98902.66;;;22.16;63.04
32875;BME280;40468;42.128;24.750;2022-08-14T04:23:41;98898.31;;;22.15;63.29
32875;BME280;40468;42.128;24.750;2022-08-14T04:25:12;98903.63;;;22.15;63.00
32875;BME280;40468;42.128;24.750;2022-08-14T04:26:45;98895.41;;;22.18;63.18
32875;BME280;40468;42.128;24.750;2022-08-14T04:28:17;98903.38;;;22.18;63.00
32875;BME280;40468;42.128;24.750;2022-08-14T04:29:49;98902.19;;;22.21;63.07
32875;BME280;40468;42.128;24.750;2022-08-14T04:31:21;98908.00;;;22.24;62.73
32875;BME280;40468;42.128;24.750;2022-08-14T04:32:52;98902.50;;;22.26;62.98
32875;BME280;40468;42.128;24.750;2022-08-14T04:34:24;98904.84;;;22.29;62.62
32875;BME280;40468;42.128;24.750;2022-08-14T04:35:55;98908.16;;;22.31;62.70
32875;BME280;40468;42.128;24.750;2022-08-14T04:37:26;98903.69;;;22.32;62.76
32875;BME280;40468;42.128;24.750;2022-08-14T04:39:15;98907.00;;;22.34;63.06
32875;BME280;40468;42.128;24.750;2022-08-14T04:41:04;98901.84;;;22.32;63.15
32875;BME280;40468;42.128;24.750;2022-08-14T04:42:55;98899.53;;;22.29;62.89
32875;BME280;40468;42.128;24.750;2022-08-14T04:44:44;98905.19;;;22.34;63.38
32875;BME280;40468;42.128;24.750;2022-08-14T04:46:16;98907.97;;;22.33;63.51
32875;BME280;40468;42.128;24.750;2022-08-14T04:47:48;98904.69;;;22.31;63.67
32875;BME280;40468;42.128;24.750;2022-08-14T04:49:37;98906.81;;;22.27;64.12
32875;BME280;40468;42.128;24.750;2022-08-14T04:51:12;98911.63;;;22.23;64.18
32875;BME280;40468;42.128;24.750;2022-08-14T04:52:44;98897.06;;;22.19;64.61
32875;BME280;40468;42.128;24.750;2022-08-14T04:54:18;98897.19;;;22.10;65.07
32875;BME280;40468;42.128;24.750;2022-08-14T04:55:50;98902.16;;;22.13;65.06
32875;BME280;40468;42.128;24.750;2022-08-14T04:57:22;98892.53;;;22.12;65.00
32875;BME280;40468;42.128;24.750;2022-08-14T04:58:55;98895.69;;;22.15;64.75
32875;BME280;40468;42.128;24.750;2022-08-14T05:00:29;98890.88;;;22.11;65.40
32875;BME280;40468;42.128;24.750;2022-08-14T05:02:00;98894.88;;;22.07;65.52
32875;BME280;40468;42.128;24.750;2022-08-14T05:03:33;98895.50;;;22.09;65.21
32875;BME280;40468;42.128;24.750;2022-08-14T05:05:05;98895.38;;;22.10;64.92
32875;BME280;40468;42.128;24.750;2022-08-14T05:06:38;98893.69;;;22.09;65.11
32875;BME280;40468;42.128;24.750;2022-08-14T05:08:10;98902.97;;;22.05;65.04
32875;BME280;40468;42.128;24.750;2022-08-14T05:09:42;98893.69;;;22.09;64.84
32875;BME280;40468;42.128;24.750;2022-08-14T05:11:13;98890.38;;;22.15;64.82
32875;BME280;40468;42.128;24.750;2022-08-14T05:12:45;98890.94;;;22.19;64.67
32875;BME280;40468;42.128;24.750;2022-08-14T05:14:18;98883.28;;;22.24;64.47
32875;BME280;40468;42.128;24.750;2022-08-14T05:15:52;98892.25;;;22.31;64.45
32875;BME280;40468;42.128;24.750;2022-08-14T05:17:24;98884.63;;;22.36;63.94
32875;BME280;40468;42.128;24.750;2022-08-14T05:18:55;98890.22;;;22.41;63.92
32875;BME280;40468;42.128;24.750;2022-08-14T05:20:27;98879.97;;;22.38;64.02
32875;BME280;40468;42.128;24.750;2022-08-14T05:21:59;98880.63;;;22.40;64.28
32875;BME280;40468;42.128;24.750;2022-08-14T05:23:32;98883.97;;;22.42;63.88
32875;BME280;40468;42.128;24.750;2022-08-14T05:25:04;98878.47;;;22.44;63.83
32875;BME280;40468;42.128;24.750;2022-08-14T05:26:36;98879.97;;;22.46;63.75
32875;BME280;40468;42.128;24.750;2022-08-14T05:28:10;98877.16;;;22.48;63.74
32875;BME280;40468;42.128;24.750;2022-08-14T05:29:43;98873.97;;;22.53;63.54
32875;BME280;40468;42.128;24.750;2022-08-14T05:31:16;98877.13;;;22.56;63.38
32875;BME280;40468;42.128;24.750;2022-08-14T05:32:48;98883.75;;;22.60;63.19
32875;BME280;40468;42.128;24.750;2022-08-14T05:34:19;98871.66;;;22.66;63.02
32875;BME280;40468;42.128;24.750;2022-08-14T05:35:53;98874.94;;;22.68;62.98
32875;BME280;40468;42.128;24.750;2022-08-14T05:37:30;98884.56;;;22.69;62.92
32875;BME280;40468;42.128;24.750;2022-08-14T05:39:02;98880.91;;;22.70;62.91
32875;BME280;40468;42.128;24.750;2022-08-14T05:40:34;98882.88;;;22.76;62.32
32875;BME280;40468;42.128;24.750;2022-08-14T05:42:05;98879.56;;;22.82;62.23
32875;BME280;40468;42.128;24.750;2022-08-14T05:43:37;98884.84;;;22.82;62.34
32875;BME280;40468;42.128;24.750;2022-08-14T05:45:11;98887.34;;;22.84;62.42
32875;BME280;40468;42.128;24.750;2022-08-14T05:46:43;98889.50;;;22.88;62.35
32875;BME280;40468;42.128;24.750;2022-08-14T05:48:15;98884.34;;;22.95;62.09
32875;BME280;40468;42.128;24.750;2022-08-14T05:49:47;98889.66;;;22.95;62.55
32875;BME280;40468;42.128;24.750;2022-08-14T05:51:19;98882.19;;;22.90;62.70
32875;BME280;40468;42.128;24.750;2022-08-14T05:52:50;98885.34;;;22.86;62.69
32875;BME280;40468;42.128;24.750;2022-08-14T05:54:22;98878.06;;;22.80;63.11
32875;BME280;40468;42.128;24.750;2022-08-14T05:55:54;98886.22;;;22.78;63.53
32875;BME280;40468;42.128;24.750;2022-08-14T05:57:28;98882.72;;;22.78;63.57
32875;BME280;40468;42.128;24.750;2022-08-14T05:59:00;98885.88;;;22.81;63.79
32875;BME280;40468;42.128;24.750;2022-08-14T06:00:34;98885.34;;;22.86;63.51
32875;BME280;40468;42.128;24.750;2022-08-14T06:02:06;98884.84;;;22.90;63.73
32875;BME280;40468;42.128;24.750;2022-08-14T06:03:37;98892.16;;;22.97;63.40
32875;BME280;40468;42.128;24.750;2022-08-14T06:05:09;98888.16;;;23.01;63.50
32875;BME280;40468;42.128;24.750;2022-08-14T06:06:41;98893.13;;;23.04;62.91
32875;BME280;40468;42.128;24.750;2022-08-14T06:08:13;98892.44;;;23.10;62.71
32875;BME280;40468;42.128;24.750;2022-08-14T06:09:45;98887.78;;;23.12;62.86
32875;BME280;40468;42.128;24.750;2022-08-14T06:11:17;98889.78;;;23.10;62.82
32875;BME280;40468;42.128;24.750;2022-08-14T06:12:49;98891.78;;;23.08;62.77
32875;BME280;40468;42.128;24.750;2022-08-14T06:14:19;98888.94;;;23.09;63.09
32875;BME280;40468;42.128;24.750;2022-08-14T06:15:52;98892.44;;;23.10;62.82
32875;BME280;40468;42.128;24.750;2022-08-14T06:17:24;98894.94;;;23.11;62.61
32875;BME280;40468;42.128;24.750;2022-08-14T06:18:55;98890.28;;;23.13;62.64
32875;BME280;40468;42.128;24.750;2022-08-14T06:20:27;98894.59;;;23.14;62.63
32875;BME280;40468;42.128;24.750;2022-08-14T06:21:57;98889.44;;;23.13;62.93
32875;BME280;40468;42.128;24.750;2022-08-14T06:23:29;98884.47;;;23.10;62.78
32875;BME280;40468;42.128;24.750;2022-08-14T06:25:01;98892.63;;;23.08;63.05
32875;BME280;40468;42.128;24.750;2022-08-14T06:26:31;98886.47;;;23.08;62.98
32875;BME280;40468;42.128;24.750;2022-08-14T06:28:03;98885.31;;;23.10;62.87
32875;BME280;40468;42.128;24.750;2022-08-14T06:29:35;98890.78;;;23.09;63.09
32875;BME280;40468;42.128;24.750;2022-08-14T06:31:08;98897.59;;;23.11;62.90
32875;BME280;40468;42.128;24.750;2022-08-14T06:32:41;98902.72;;;23.13;62.60
32875;BME280;40468;42.128;24.750;2022-08-14T06:34:13;98907.88;;;23.14;62.86
32875;BME280;40468;42.128;24.750;2022-08-14T06:35:45;98901.06;;;23.12;62.47
32875;BME280;40468;42.128;24.750;2022-08-14T06:37:17;98902.06;;;23.11;62.77
32875;BME280;40468;42.128;24.750;2022-08-14T06:38:50;98903.06;;;23.10;62.65
32875;BME280;40468;42.128;24.750;2022-08-14T06:40:22;98900.59;;;23.08;62.74
32875;BME280;40468;42.128;24.750;2022-08-14T06:41:54;98900.59;;;23.08;62.80
32875;BME280;40468;42.128;24.750;2022-08-14T06:43:26;98901.94;;;23.04;62.66
32875;BME280;40468;42.128;24.750;2022-08-14T06:44:57;98900.44;;;23.02;62.46
32875;BME280;40468;42.128;24.750;2022-08-14T06:46:32;98902.91;;;23.03;62.35
32875;BME280;40468;42.128;24.750;2022-08-14T06:48:04;98907.75;;;23.00;62.13
32875;BME280;40468;42.128;24.750;2022-08-14T06:49:43;98900.13;;;22.97;62.44
32875;BME280;40468;42.128;24.750;2022-08-14T06:51:14;98901.44;;;22.92;62.33
32875;BME280;40468;42.128;24.750;2022-08-14T06:52:46;98903.91;;;22.94;62.47
32875;BME280;40468;42.128;24.750;2022-08-14T06:54:17;98895.81;;;22.96;62.22
32875;BME280;40468;42.128;24.750;2022-08-14T06:55:49;98894.00;;;22.96;62.29
32875;BME280;40468;42.128;24.750;2022-08-14T06:57:21;98893.81;;;22.98;62.60
32875;BME280;40468;42.128;24.750;2022-08-14T06:58:52;98895.13;;;23.02;62.37
32875;BME280;40468;42.128;24.750;2022-08-14T07:00:24;98897.78;;;23.02;62.31
32875;BME280;40468;42.128;24.750;2022-08-14T07:01:57;98901.13;;;22.96;62.15
32875;BME280;40468;42.128;24.750;2022-08-14T07:03:46;98896.47;;;22.98;62.27
32875;BME280;40468;42.128;24.750;2022-08-14T07:05:36;98896.97;;;23.01;62.10
32875;BME280;40468;42.128;24.750;2022-08-14T07:07:17;98902.56;;;23.06;61.50
32875;BME280;40468;42.128;24.750;2022-08-14T07:08:49;98901.41;;;23.09;61.03
32875;BME280;40468;42.128;24.750;2022-08-14T07:10:21;98906.56;;;23.10;61.09
32875;BME280;40468;42.128;24.750;2022-08-14T07:11:53;98906.72;;;23.09;61.31
32875;BME280;40468;42.128;24.750;2022-08-14T07:13:26;98904.72;;;23.11;60.69
32875;BME280;40468;42.128;24.750;2022-08-14T07:14:58;98904.38;;;23.14;61.06
32875;BME280;40468;42.128;24.750;2022-08-14T07:16:29;98908.88;;;23.13;60.98
32875;BME280;40468;42.128;24.750;2022-08-14T07:18:03;98907.53;;;23.09;60.83
32875;BME280;40468;42.128;24.750;2022-08-14T07:19:34;98906.06;;;23.07;61.00
32875;BME280;40468;42.128;24.750;2022-08-14T07:21:06;98910.72;;;23.05;61.21
32875;BME280;40468;42.128;24.750;2022-08-14T07:22:38;98906.09;;;22.99;61.22
32875;BME280;40468;42.128;24.750;2022-08-14T07:24:09;98913.06;;;23.00;61.27
32875;BME280;40468;42.128;24.750;2022-08-14T07:25:41;98919.66;;;23.04;60.90
32875;BME280;40468;42.128;24.750;2022-08-14T07:27:13;98916.50;;;23.08;60.61
32875;BME280;40468;42.128;24.750;2022-08-14T07:28:43;98918.63;;;23.13;60.43
32875;BME280;40468;42.128;24.750;2022-08-14T07:30:15;98918.00;;;23.11;60.17
32875;BME280;40468;42.128;24.750;2022-08-14T07:31:47;98916.16;;;23.11;60.20
32875;BME280;40468;42.128;24.750;2022-08-14T07:33:20;98917.19;;;23.10;59.93
32875;BME280;40468;42.128;24.750;2022-08-14T07:34:52;98915.50;;;23.09;59.35
32875;BME280;40468;42.128;24.750;2022-08-14T07:36:23;98920.34;;;23.06;59.35
32875;BME280;40468;42.128;24.750;2022-08-14T07:37:54;98919.53;;;22.97;59.59
32875;BME280;40468;42.128;24.750;2022-08-14T07:39:25;98921.81;;;22.92;59.65
32875;BME280;40468;42.128;24.750;2022-08-14T07:40:56;98923.31;;;22.86;60.43
32875;BME280;40468;42.128;24.750;2022-08-14T07:42:29;98916.72;;;22.82;60.96
32875;BME280;40468;42.128;24.750;2022-08-14T07:44:01;98928.84;;;22.77;61.75
32875;BME280;40468;42.128;24.750;2022-08-14T07:45:33;98923.19;;;22.71;62.67
32875;BME280;40468;42.128;24.750;2022-08-14T07:47:05;98932.34;;;22.61;62.92
32875;BME280;40468;42.128;24.750;2022-08-14T07:48:39;98923.03;;;22.57;63.37
32875;BME280;40468;42.128;24.750;2022-08-14T07:50:13;98925.22;;;22.53;63.53
32875;BME280;40468;42.128;24.750;2022-08-14T07:51:45;98929.69;;;22.53;64.38
32875;BME280;40468;42.128;24.750;2022-08-14T07:53:17;98923.56;;;22.52;65.48
32875;BME280;40468;42.128;24.750;2022-08-14T07:54:49;98923.41;;;22.45;67.82
32875;BME280;40468;42.128;24.750;2022-08-14T07:56:20;98920.09;;;22.35;69.46
32875;BME280;40468;42.128;24.750;2022-08-14T07:57:52;98921.91;;;22.26;70.47
32875;BME280;40468;42.128;24.750;2022-08-14T07:59:25;98916.63;;;22.18;70.82
32875;BME280;40468;42.128;24.750;2022-08-14T08:00:56;98923.53;;;22.11;71.35
32875;BME280;40468;42.128;24.750;2022-08-14T08:02:29;98919.56;;;22.07;72.45
32875;BME280;40468;42.128;24.750;2022-08-14T08:04:03;98913.09;;;22.01;72.23
32875;BME280;40468;42.128;24.750;2022-08-14T08:05:36;98913.41;;;21.98;72.35
32875;BME280;40468;42.128;24.750;2022-08-14T08:07:08;98915.75;;;22.01;71.64
32875;BME280;40468;42.128;24.750;2022-08-14T08:08:40;98914.25;;;21.99;71.85